createdAt,value
2024-02-18T00:00:09.804Z,103026.69
2024-02-18T00:00:23.138Z,103028.50
2024-02-18T00:00:56.290Z,103023.16
2024-02-18T00:01:29.986Z,103025.84
2024-02-18T00:01:44.643Z,103022.31
2024-02-18T00:01:58.189Z,103032.06
2024-02-18T00:02:11.284Z,103031.19
2024-02-18T00:02:24.569Z,103021.41
2024-02-18T00:02:37.698Z,103028.53
2024-02-18T00:02:50.696Z,103025.00
2024-02-18T00:03:03.906Z,103025.00
2024-02-18T00:03:17.399Z,103025.88
2024-02-18T00:03:31.566Z,103026.72
2024-02-18T00:03:44.916Z,103026.72
2024-02-18T00:03:58.438Z,103025.88
2024-02-18T00:04:13.244Z,103026.81
2024-02-18T00:04:26.588Z,103022.34
2024-02-18T00:04:39.789Z,103024.16
2024-02-18T00:04:53.283Z,103025.91
2024-02-18T00:05:07.525Z,103022.38
2024-02-18T00:05:22.198Z,103023.25
2024-02-18T00:05:36.416Z,103024.19
2024-02-18T00:05:49.486Z,103025.91
2024-02-18T00:06:02.565Z,103025.03
2024-02-18T00:06:15.610Z,103026.84
2024-02-18T00:06:28.803Z,103031.28
2024-02-18T00:06:42.359Z,103021.50
2024-02-18T00:06:55.743Z,103030.41
2024-02-18T00:07:08.947Z,103027.75
2024-02-18T00:07:22.444Z,103030.41
2024-02-18T00:07:37.442Z,103031.34
2024-02-18T00:07:50.880Z,103026.03
2024-02-18T00:08:04.407Z,103032.22
2024-02-18T00:08:17.379Z,103024.25
2024-02-18T00:08:30.380Z,103027.84
2024-02-18T00:08:43.332Z,103033.16
2024-02-18T00:08:56.347Z,103034.97
2024-02-18T00:09:09.348Z,103034.09
2024-02-18T00:09:22.381Z,103026.97
2024-02-18T00:09:36.608Z,103032.34
2024-02-18T00:09:49.955Z,103032.34
2024-02-18T00:10:03.186Z,103032.34
2024-02-18T00:10:16.446Z,103029.69
2024-02-18T00:10:29.493Z,103029.69
2024-02-18T00:10:42.823Z,103032.34
2024-02-18T00:10:55.941Z,103037.66
2024-02-18T00:11:09.553Z,103027.00
2024-02-18T00:11:22.767Z,103031.47
2024-02-18T00:11:37.057Z,103033.25
2024-02-18T00:11:50.209Z,103035.00
2024-02-18T00:12:03.407Z,103030.59
2024-02-18T00:12:16.468Z,103030.59
2024-02-18T00:12:29.573Z,103033.25
2024-02-18T00:12:42.752Z,103032.38
2024-02-18T00:12:55.953Z,103035.03
2024-02-18T00:13:10.130Z,103038.59
2024-02-18T00:13:23.157Z,103036.81
2024-02-18T00:13:38.125Z,103033.25
2024-02-18T00:13:51.256Z,103035.94
2024-02-18T00:14:04.277Z,103031.50
2024-02-18T00:14:17.347Z,103039.50
2024-02-18T00:14:30.662Z,103039.50
2024-02-18T00:14:44.206Z,103036.81
2024-02-18T00:14:57.453Z,103034.16
2024-02-18T00:15:12.117Z,103035.09
2024-02-18T00:15:25.431Z,103034.16
2024-02-18T00:15:38.483Z,103038.63
2024-02-18T00:15:51.571Z,103042.16
2024-02-18T00:16:05.064Z,103035.97
2024-02-18T00:16:18.253Z,103038.63
2024-02-18T00:16:32.502Z,103040.34
2024-02-18T00:16:45.437Z,103041.25
2024-02-18T00:16:59.420Z,103041.25
2024-02-18T00:17:13.967Z,103043.91
2024-02-18T00:17:26.913Z,103040.31
2024-02-18T00:17:39.967Z,103046.50
2024-02-18T00:17:52.956Z,103049.16
2024-02-18T00:18:06.420Z,103042.06
2024-02-18T00:18:19.548Z,103042.06
2024-02-18T00:18:33.632Z,103050.06
2024-02-18T00:18:46.742Z,103043.81
2024-02-18T00:19:00.948Z,103044.75
2024-02-18T00:19:14.071Z,103046.47
2024-02-18T00:19:27.121Z,103046.47
2024-02-18T00:19:40.411Z,103048.19
2024-02-18T00:19:53.593Z,103054.41
2024-02-18T00:20:07.364Z,103049.09
2024-02-18T00:20:21.988Z,103048.19
2024-02-18T00:20:36.725Z,103049.97
2024-02-18T00:20:50.726Z,103051.75
2024-02-18T00:21:03.804Z,103047.31
2024-02-18T00:21:18.026Z,103053.47
2024-02-18T00:21:31.236Z,103051.69
2024-02-18T00:21:44.577Z,103054.34
2024-02-18T00:21:58.194Z,103051.69
2024-02-18T00:22:11.303Z,103057.00
2024-02-18T00:22:25.297Z,103054.34
2024-02-18T00:22:38.336Z,103050.81
2024-02-18T00:22:51.525Z,103051.69
2024-02-18T00:23:04.778Z,103044.63
2024-02-18T00:23:17.688Z,103058.78
2024-02-18T00:23:30.913Z,103053.47
2024-02-18T00:23:43.786Z,103049.03
2024-02-18T00:23:58.178Z,103048.16
2024-02-18T00:24:12.235Z,103051.69
2024-02-18T00:24:25.256Z,103054.34
2024-02-18T00:24:38.264Z,103056.13
2024-02-18T00:24:52.483Z,103056.97
2024-02-18T00:25:07.804Z,103049.94
2024-02-18T00:25:21.163Z,103049.94
2024-02-18T00:25:34.124Z,103053.44
2024-02-18T00:25:47.106Z,103048.13
2024-02-18T00:26:01.814Z,103050.78
2024-02-18T00:26:15.080Z,103049.84
2024-02-18T00:26:38.580Z,103049.84
2024-02-18T00:27:01.820Z,103053.41
2024-02-18T00:27:14.997Z,103056.06
2024-02-18T00:27:28.046Z,103057.84
2024-02-18T00:27:42.115Z,103056.97
2024-02-18T00:27:55.179Z,103054.31
2024-02-18T00:28:08.858Z,103054.31
2024-02-18T00:28:21.990Z,103055.19
2024-02-18T00:28:34.946Z,103056.97
2024-02-18T00:28:47.941Z,103058.78
2024-02-18T00:29:01.619Z,103053.44
2024-02-18T00:29:14.664Z,103059.63
2024-02-18T00:29:27.835Z,103053.44
2024-02-18T00:29:41.839Z,103063.16
2024-02-18T00:29:55.113Z,103058.78
2024-02-18T00:30:08.859Z,103058.78
2024-02-18T00:30:21.993Z,103062.34
2024-02-18T00:30:35.200Z,103055.25
2024-02-18T00:30:50.716Z,103056.16
2024-02-18T00:31:03.835Z,103056.13
2024-02-18T00:31:16.982Z,103056.13
2024-02-18T00:31:30.951Z,103057.91
2024-02-18T00:31:43.893Z,103056.16
2024-02-18T00:31:56.912Z,103053.44
2024-02-18T00:32:09.949Z,103057.00
2024-02-18T00:32:23.645Z,103058.78
2024-02-18T00:32:36.756Z,103062.34
2024-02-18T00:32:49.810Z,103054.34
2024-02-18T00:33:04.683Z,103054.34
2024-02-18T00:33:17.848Z,103058.81
2024-02-18T00:33:31.107Z,103062.34
2024-02-18T00:33:44.405Z,103056.16
2024-02-18T00:33:57.619Z,103053.47
2024-02-18T00:34:10.806Z,103058.84
2024-02-18T00:34:24.973Z,103057.00
2024-02-18T00:34:38.672Z,103060.59
2024-02-18T00:34:52.936Z,103063.25
2024-02-18T00:35:07.158Z,103063.25
2024-02-18T00:35:21.623Z,103063.25
2024-02-18T00:35:34.649Z,103061.47
2024-02-18T00:35:47.771Z,103059.75
2024-02-18T00:36:01.078Z,103062.41
2024-02-18T00:36:15.090Z,103053.53
2024-02-18T00:36:28.665Z,103074.78
2024-02-18T00:36:42.749Z,103060.59
2024-02-18T00:36:56.102Z,103063.25
2024-02-18T00:37:09.108Z,103064.13
2024-02-18T00:37:22.172Z,103057.00
2024-02-18T00:37:35.213Z,103061.47
2024-02-18T00:37:48.188Z,103062.34
2024-02-18T00:38:01.357Z,103064.09
2024-02-18T00:38:14.406Z,103063.22
2024-02-18T00:38:29.109Z,103058.78
2024-02-18T00:38:43.194Z,103064.97
2024-02-18T00:38:56.285Z,103064.09
2024-02-18T00:39:10.932Z,103059.63
2024-02-18T00:39:24.399Z,103063.16
2024-02-18T00:39:37.499Z,103053.44
2024-02-18T00:39:50.529Z,103060.50
2024-02-18T00:40:04.139Z,103062.25
2024-02-18T00:40:18.390Z,103065.81
2024-02-18T00:40:31.383Z,103062.25
2024-02-18T00:40:44.420Z,103058.75
2024-02-18T00:40:58.161Z,103060.50
2024-02-18T00:41:12.300Z,103059.63
2024-02-18T00:41:25.312Z,103063.16
2024-02-18T00:41:38.277Z,103057.84
2024-02-18T00:41:51.284Z,103059.66
2024-02-18T00:42:07.521Z,103058.78
2024-02-18T00:42:20.523Z,103059.66
2024-02-18T00:42:33.570Z,103064.09
2024-02-18T00:42:47.001Z,103063.25
2024-02-18T00:43:00.447Z,103065.94
2024-02-18T00:43:13.585Z,103057.97
2024-02-18T00:43:26.645Z,103057.97
2024-02-18T00:43:39.813Z,103058.91
2024-02-18T00:43:52.829Z,103057.13
2024-02-18T00:44:06.852Z,103063.38
2024-02-18T00:44:20.940Z,103061.59
2024-02-18T00:44:33.852Z,103064.25
2024-02-18T00:44:46.846Z,103067.84
2024-02-18T00:44:59.868Z,103066.97
2024-02-18T00:45:14.251Z,103063.44
2024-02-18T00:45:27.141Z,103066.97
2024-02-18T00:45:40.147Z,103070.56
2024-02-18T00:45:53.186Z,103065.22
2024-02-18T00:46:18.276Z,103075.91
2024-02-18T00:46:47.754Z,103067.94
2024-02-18T00:47:07.721Z,103076.84
2024-02-18T00:47:20.835Z,103067.06
2024-02-18T00:47:33.805Z,103066.19
2024-02-18T00:47:47.887Z,103074.19
2024-02-18T00:48:01.012Z,103069.75
2024-02-18T00:48:14.419Z,103062.63
2024-02-18T00:48:27.679Z,103067.97
2024-02-18T00:48:41.386Z,103075.91
2024-02-18T00:48:54.890Z,103077.72
2024-02-18T00:49:07.896Z,103067.94
2024-02-18T00:49:20.967Z,103071.53
2024-02-18T00:49:35.149Z,103065.31
2024-02-18T00:49:50.982Z,103069.72
2024-02-18T00:50:04.364Z,103068.84
2024-02-18T00:50:17.726Z,103071.53
2024-02-18T00:50:32.038Z,103070.63
2024-02-18T00:50:44.997Z,103068.84
2024-02-18T00:50:57.968Z,103074.13
2024-02-18T00:51:10.905Z,103078.56
2024-02-18T00:51:24.065Z,103076.78
2024-02-18T00:51:38.134Z,103067.94
2024-02-18T00:51:51.188Z,103068.78
2024-02-18T00:52:05.040Z,103073.25
2024-02-18T00:52:18.229Z,103068.78
2024-02-18T00:52:31.260Z,103068.78
2024-02-18T00:52:44.195Z,103068.78
2024-02-18T00:52:57.139Z,103065.22
2024-02-18T00:53:10.428Z,103069.69
2024-02-18T00:53:23.505Z,103067.03
2024-02-18T00:53:37.505Z,103069.69
2024-02-18T00:53:50.815Z,103059.94
2024-02-18T00:54:03.840Z,103064.38
2024-02-18T00:54:17.068Z,103069.69
2024-02-18T00:54:30.086Z,103064.38
2024-02-18T00:54:43.196Z,103061.72
2024-02-18T00:54:56.478Z,103067.03
2024-02-18T00:55:10.168Z,103062.59
2024-02-18T00:55:24.300Z,103069.69
2024-02-18T00:55:37.346Z,103071.44
2024-02-18T00:55:50.548Z,103065.25
2024-02-18T00:56:03.584Z,103064.41
2024-02-18T00:56:16.568Z,103067.94
2024-02-18T00:56:29.602Z,103070.59
2024-02-18T00:56:42.597Z,103070.59
2024-02-18T00:56:55.551Z,103067.06
2024-02-18T00:57:09.565Z,103063.53
2024-02-18T00:57:23.244Z,103071.53
2024-02-18T00:57:36.723Z,103070.59
2024-02-18T00:57:49.755Z,103066.19
2024-02-18T00:58:03.786Z,103066.19
2024-02-18T00:58:17.066Z,103059.97
2024-02-18T00:58:30.032Z,103067.97
2024-02-18T00:58:42.989Z,103065.31
2024-02-18T00:58:57.044Z,103066.19
2024-02-18T00:59:10.196Z,103064.44
2024-02-18T00:59:24.049Z,103068.84
2024-02-18T00:59:37.107Z,103061.78
2024-02-18T00:59:50.216Z,103062.63
2024-02-18T01:00:03.867Z,103055.59
2024-02-18T01:00:17.523Z,103062.63
2024-02-18T01:00:30.673Z,103063.53
2024-02-18T01:00:44.889Z,103070.63
2024-02-18T01:00:58.191Z,103070.63
2024-02-18T01:01:11.544Z,103061.78
2024-02-18T01:01:24.796Z,103069.75
2024-02-18T01:01:38.126Z,103068.03
2024-02-18T01:01:51.321Z,103067.09
2024-02-18T01:02:04.786Z,103067.09
2024-02-18T01:02:17.863Z,103068.03
2024-02-18T01:02:31.579Z,103061.84
2024-02-18T01:02:45.815Z,103068.91
2024-02-18T01:02:58.835Z,103068.94
2024-02-18T01:03:11.876Z,103061.88
2024-02-18T01:03:24.877Z,103068.06
2024-02-18T01:03:38.022Z,103064.53
2024-02-18T01:03:51.002Z,103069.00
2024-02-18T01:04:04.425Z,103063.66
2024-02-18T01:04:17.486Z,103072.56
2024-02-18T01:04:31.495Z,103066.34
2024-02-18T01:04:44.797Z,103069.03
2024-02-18T01:04:57.889Z,103066.38
2024-02-18T01:05:11.879Z,103063.69
2024-02-18T01:05:25.170Z,103070.81
2024-02-18T01:05:39.653Z,103062.88
2024-02-18T01:05:53.098Z,103072.59
2024-02-18T01:06:06.447Z,103064.59
2024-02-18T01:06:19.546Z,103068.19
2024-02-18T01:06:32.903Z,103062.88
2024-02-18T01:06:45.959Z,103065.53
2024-02-18T01:07:00.015Z,103069.06
2024-02-18T01:07:13.074Z,103069.09
2024-02-18T01:07:26.683Z,103070.88
2024-02-18T01:07:39.638Z,103070.03
2024-02-18T01:07:53.342Z,103070.94
2024-02-18T01:08:06.620Z,103068.28
2024-02-18T01:08:19.898Z,103065.63
2024-02-18T01:08:32.902Z,103065.63
2024-02-18T01:08:45.937Z,103067.41
2024-02-18T01:08:59.978Z,103068.31
2024-02-18T01:09:13.118Z,103067.47
2024-02-18T01:09:26.159Z,103072.78
2024-02-18T01:09:39.184Z,103063.00
2024-02-18T01:09:52.589Z,103074.53
2024-02-18T01:10:06.942Z,103068.34
2024-02-18T01:10:20.131Z,103070.13
2024-02-18T01:10:33.118Z,103066.63
2024-02-18T01:10:46.593Z,103062.16
2024-02-18T01:11:00.770Z,103066.63
2024-02-18T01:11:13.859Z,103069.28
2024-02-18T01:11:27.186Z,103061.34
2024-02-18T01:11:40.364Z,103068.38
2024-02-18T01:11:54.461Z,103075.50
2024-02-18T01:12:08.048Z,103063.13
2024-02-18T01:12:21.124Z,103071.13
2024-02-18T01:12:34.096Z,103070.22
2024-02-18T01:12:48.331Z,103069.34
2024-02-18T01:13:01.406Z,103072.00
2024-02-18T01:13:15.502Z,103070.28
2024-02-18T01:13:28.475Z,103067.63
2024-02-18T01:13:41.522Z,103070.28
2024-02-18T01:13:54.508Z,103073.84
2024-02-18T01:14:07.495Z,103071.19
2024-02-18T01:14:21.010Z,103068.53
2024-02-18T01:14:34.018Z,103077.44
2024-02-18T01:14:47.095Z,103068.59
2024-02-18T01:15:01.361Z,103071.25
2024-02-18T01:15:14.699Z,103070.34
2024-02-18T01:15:27.817Z,103070.34
2024-02-18T01:15:41.357Z,103068.63
2024-02-18T01:15:54.329Z,103070.41
2024-02-18T01:16:10.823Z,103071.28
2024-02-18T01:16:23.795Z,103068.63
2024-02-18T01:16:37.705Z,103068.63
2024-02-18T01:16:52.274Z,103073.06
2024-02-18T01:17:05.361Z,103069.50
2024-02-18T01:17:19.532Z,103072.19
2024-02-18T01:17:32.829Z,103075.75
2024-02-18T01:17:45.910Z,103068.66
2024-02-18T01:17:59.005Z,103067.78
2024-02-18T01:18:12.144Z,103074.91
2024-02-18T01:18:25.394Z,103064.25
2024-02-18T01:18:44.103Z,103074.00
2024-02-18T01:18:58.779Z,103067.81
2024-02-18T01:19:12.381Z,103066.94
2024-02-18T01:19:25.950Z,103070.47
2024-02-18T01:19:39.147Z,103072.28
2024-02-18T01:19:58.756Z,103070.53
2024-02-18T01:20:12.239Z,103071.41
2024-02-18T01:20:25.256Z,103066.09
2024-02-18T01:20:40.653Z,103066.09
2024-02-18T01:20:53.648Z,103060.78
2024-02-18T01:21:06.632Z,103072.28
2024-02-18T01:21:19.777Z,103064.31
2024-02-18T01:21:32.823Z,103065.22
2024-02-18T01:21:45.806Z,103075.84
2024-02-18T01:21:58.974Z,103066.13
2024-02-18T01:22:11.957Z,103074.09
2024-02-18T01:22:25.283Z,103071.44
2024-02-18T01:22:39.306Z,103074.09
2024-02-18T01:22:52.633Z,103068.78
2024-02-18T01:23:05.893Z,103072.38
2024-02-18T01:23:18.983Z,103069.72
2024-02-18T01:23:31.936Z,103069.72
2024-02-18T01:23:44.921Z,103067.91
2024-02-18T01:23:57.854Z,103061.72
2024-02-18T01:24:10.837Z,103068.78
2024-02-18T01:24:24.775Z,103066.16
2024-02-18T01:24:38.261Z,103076.78
2024-02-18T01:24:51.402Z,103067.06
2024-02-18T01:25:05.042Z,103072.38
2024-02-18T01:25:18.028Z,103065.28
2024-02-18T01:25:30.957Z,103075.03
2024-02-18T01:25:43.856Z,103062.63
2024-02-18T01:25:56.993Z,103072.38
2024-02-18T01:26:10.249Z,103069.72
2024-02-18T01:26:23.622Z,103067.94
2024-02-18T01:26:37.789Z,103066.16
2024-02-18T01:26:50.732Z,103064.38
2024-02-18T01:27:04.022Z,103067.06
2024-02-18T01:27:17.217Z,103064.38
2024-02-18T01:27:30.184Z,103071.47
2024-02-18T01:27:43.355Z,103066.22
2024-02-18T01:27:56.516Z,103073.25
2024-02-18T01:28:09.518Z,103074.19
2024-02-18T01:28:24.586Z,103067.13
2024-02-18T01:28:38.577Z,103067.13
2024-02-18T01:28:51.652Z,103072.44
2024-02-18T01:29:04.839Z,103076.03
2024-02-18T01:29:17.823Z,103072.47
2024-02-18T01:29:30.830Z,103066.28
2024-02-18T01:29:43.861Z,103068.94
2024-02-18T01:29:57.252Z,103067.22
2024-02-18T01:30:11.255Z,103068.06
2024-02-18T01:30:24.358Z,103065.44
2024-02-18T01:30:38.404Z,103065.44
2024-02-18T01:30:51.689Z,103063.72
2024-02-18T01:31:05.163Z,103072.56
2024-02-18T01:31:18.221Z,103068.16
2024-02-18T01:31:31.176Z,103064.63
2024-02-18T01:31:44.305Z,103071.72
2024-02-18T01:31:57.436Z,103065.53
2024-02-18T01:32:10.495Z,103068.19
2024-02-18T01:32:23.437Z,103072.66
2024-02-18T01:32:36.428Z,103063.78
2024-02-18T01:32:50.674Z,103068.22
2024-02-18T01:33:04.165Z,103065.59
2024-02-18T01:33:17.232Z,103071.81
2024-02-18T01:33:30.694Z,103065.59
2024-02-18T01:33:45.225Z,103068.25
2024-02-18T01:33:58.340Z,103071.84
2024-02-18T01:34:11.450Z,103063.88
2024-02-18T01:34:24.658Z,103068.31
2024-02-18T01:34:38.827Z,103071.84
2024-02-18T01:34:55.636Z,103067.47
2024-02-18T01:35:09.116Z,103068.34
2024-02-18T01:35:22.755Z,103065.69
2024-02-18T01:35:35.736Z,103068.34
2024-02-18T01:35:50.215Z,103065.69
2024-02-18T01:36:03.208Z,103069.28
2024-02-18T01:36:16.354Z,103063.06
2024-02-18T01:36:29.325Z,103067.53
2024-02-18T01:36:43.405Z,103066.66
2024-02-18T01:36:56.865Z,103064.00
2024-02-18T01:37:10.080Z,103072.84
2024-02-18T01:37:23.141Z,103065.78
2024-02-18T01:37:36.113Z,103059.56
2024-02-18T01:37:49.121Z,103059.63
2024-02-18T01:38:03.321Z,103066.69
2024-02-18T01:38:16.356Z,103067.63
2024-02-18T01:38:30.332Z,103059.63
2024-02-18T01:38:43.326Z,103073.81
2024-02-18T01:38:56.616Z,103065.00
2024-02-18T01:39:09.623Z,103064.13
2024-02-18T01:39:22.687Z,103067.66
2024-02-18T01:39:36.192Z,103067.69
2024-02-18T01:39:49.302Z,103065.06
2024-02-18T01:40:02.420Z,103063.28
2024-02-18T01:40:16.614Z,103066.81
2024-02-18T01:40:29.842Z,103065.94
2024-02-18T01:40:42.774Z,103071.25
2024-02-18T01:40:55.809Z,103071.28
2024-02-18T01:41:08.806Z,103065.13
2024-02-18T01:41:21.807Z,103068.63
2024-02-18T01:41:34.790Z,103066.91
2024-02-18T01:41:47.809Z,103069.56
2024-02-18T01:42:01.933Z,103074.91
2024-02-18T01:42:14.979Z,103064.28
2024-02-18T01:42:28.047Z,103066.09
2024-02-18T01:42:41.408Z,103066.97
2024-02-18T01:42:54.493Z,103066.97
2024-02-18T01:43:07.521Z,103070.56
2024-02-18T01:43:20.513Z,103063.47
2024-02-18T01:43:33.548Z,103071.50
2024-02-18T01:43:46.584Z,103071.50
2024-02-18T01:44:00.600Z,103065.28
2024-02-18T01:44:13.913Z,103066.22
2024-02-18T01:44:27.241Z,103068.00
2024-02-18T01:44:40.190Z,103066.25
2024-02-18T01:44:53.161Z,103071.59
2024-02-18T01:45:07.478Z,103068.06
2024-02-18T01:45:21.205Z,103073.38
2024-02-18T01:45:34.268Z,103073.38
2024-02-18T01:45:47.842Z,103074.31
2024-02-18T01:46:02.553Z,103067.22
2024-02-18T01:46:17.122Z,103072.59
2024-02-18T01:46:30.870Z,103070.81
2024-02-18T01:46:44.568Z,103071.72
2024-02-18T01:46:58.009Z,103077.97
2024-02-18T01:47:10.992Z,103071.78
2024-02-18T01:47:24.386Z,103072.66
2024-02-18T01:47:41.141Z,103075.34
2024-02-18T01:47:54.544Z,103081.59
2024-02-18T01:48:08.777Z,103078.94
2024-02-18T01:48:23.322Z,103078.06
2024-02-18T01:48:36.723Z,103075.44
2024-02-18T01:48:50.623Z,103069.25
2024-02-18T01:49:04.920Z,103074.56
2024-02-18T01:49:19.896Z,103075.47
2024-02-18T01:49:35.144Z,103075.53
2024-02-18T01:49:49.834Z,103074.63
2024-02-18T01:50:03.635Z,103069.31
2024-02-18T01:50:17.243Z,103078.22
2024-02-18T01:50:30.904Z,103083.53
2024-02-18T01:50:45.346Z,103076.47
2024-02-18T01:51:00.026Z,103080.00
2024-02-18T01:51:15.017Z,103080.91
2024-02-18T01:51:28.177Z,103083.56
2024-02-18T01:51:41.267Z,103076.50
2024-02-18T01:51:54.763Z,103077.41
2024-02-18T01:52:09.375Z,103077.41
2024-02-18T01:52:23.776Z,103079.22
2024-02-18T01:52:38.167Z,103079.22
2024-02-18T01:52:53.572Z,103078.38
2024-02-18T01:53:07.404Z,103071.31
2024-02-18T01:53:21.763Z,103083.75
2024-02-18T01:53:36.227Z,103081.97
2024-02-18T01:53:49.966Z,103084.63
2024-02-18T01:54:04.843Z,103081.97
2024-02-18T01:54:18.591Z,103078.47
2024-02-18T01:54:34.923Z,103074.09
2024-02-18T01:54:49.017Z,103079.41
2024-02-18T01:55:04.008Z,103077.63
2024-02-18T01:55:18.759Z,103070.59
2024-02-18T01:55:33.413Z,103076.81
2024-02-18T01:55:47.176Z,103077.72
2024-02-18T01:56:00.177Z,103083.03
2024-02-18T01:56:15.352Z,103081.28
2024-02-18T01:56:28.429Z,103081.31
2024-02-18T01:56:43.402Z,103074.25
2024-02-18T01:56:56.664Z,103082.25
2024-02-18T01:57:10.674Z,103079.59
2024-02-18T01:57:26.221Z,103075.22
2024-02-18T01:57:39.534Z,103077.88
2024-02-18T01:57:53.282Z,103073.44
2024-02-18T01:58:06.715Z,103081.41
2024-02-18T01:58:20.364Z,103079.69
2024-02-18T01:58:34.197Z,103084.13
2024-02-18T01:58:47.286Z,103077.91
2024-02-18T01:59:00.371Z,103070.88
2024-02-18T01:59:13.899Z,103076.19
2024-02-18T01:59:28.241Z,103078.00
2024-02-18T01:59:43.068Z,103081.59
2024-02-18T01:59:57.815Z,103081.59
2024-02-18T02:00:15.790Z,103079.81
2024-02-18T02:00:29.383Z,103076.31
2024-02-18T02:00:44.142Z,103080.78
2024-02-18T02:00:57.846Z,103079.00
2024-02-18T02:01:12.243Z,103079.00
2024-02-18T02:01:26.937Z,103077.28
2024-02-18T02:01:40.166Z,103079.97
2024-02-18T02:01:53.503Z,103074.66
2024-02-18T02:02:06.687Z,103080.88
2024-02-18T02:02:19.840Z,103073.81
2024-02-18T02:02:34.346Z,103072.06
2024-02-18T02:02:50.698Z,103072.97
2024-02-18T02:03:04.004Z,103070.31
2024-02-18T02:03:17.333Z,103073.88
2024-02-18T02:03:31.147Z,103069.47
2024-02-18T02:03:45.783Z,103069.47
2024-02-18T02:03:59.668Z,103073.06
2024-02-18T02:04:12.859Z,103079.31
2024-02-18T02:04:28.302Z,103073.13
2024-02-18T02:04:42.769Z,103072.28
2024-02-18T02:04:56.167Z,103073.19
2024-02-18T02:05:13.312Z,103072.34
2024-02-18T02:05:27.585Z,103070.59
2024-02-18T02:05:43.176Z,103071.50
2024-02-18T02:05:58.393Z,103077.66
2024-02-18T02:06:15.149Z,103072.41
2024-02-18T02:06:30.798Z,103074.22
2024-02-18T02:06:46.149Z,103079.53
2024-02-18T02:07:00.462Z,103076.91
2024-02-18T02:07:13.980Z,103073.38
2024-02-18T02:07:27.443Z,103075.19
2024-02-18T02:07:40.627Z,103076.06
2024-02-18T02:07:54.404Z,103077.84
2024-02-18T02:08:07.797Z,103076.09
2024-02-18T02:08:24.208Z,103077.88
2024-02-18T02:08:37.433Z,103077.88
2024-02-18T02:08:50.943Z,103072.63
2024-02-18T02:09:04.558Z,103074.38
2024-02-18T02:09:18.128Z,103080.59
2024-02-18T02:09:31.469Z,103077.09
2024-02-18T02:09:45.411Z,103073.53
2024-02-18T02:09:58.982Z,103080.63
2024-02-18T02:10:13.987Z,103078.91
2024-02-18T02:10:27.209Z,103078.91
2024-02-18T02:10:40.485Z,103074.50
2024-02-18T02:10:53.624Z,103075.41
2024-02-18T02:11:06.834Z,103078.94
2024-02-18T02:11:20.100Z,103073.66
2024-02-18T02:11:33.150Z,103078.97
2024-02-18T02:11:46.229Z,103079.88
2024-02-18T02:11:59.242Z,103080.78
2024-02-18T02:12:12.487Z,103073.72
2024-02-18T02:12:27.157Z,103076.38
2024-02-18T02:12:40.312Z,103082.56
2024-02-18T02:12:53.618Z,103076.41
2024-02-18T02:13:07.226Z,103077.31
2024-02-18T02:13:26.120Z,103081.75
2024-02-18T02:13:43.082Z,103077.34
2024-02-18T02:13:57.640Z,103078.25
2024-02-18T02:14:11.408Z,103076.50
2024-02-18T02:14:26.078Z,103080.09
2024-02-18T02:14:40.869Z,103079.25
2024-02-18T02:14:55.059Z,103076.59
2024-02-18T02:15:10.409Z,103072.16
2024-02-18T02:15:23.772Z,103078.41
2024-02-18T02:15:37.032Z,103078.41
2024-02-18T02:15:50.439Z,103083.72
2024-02-18T02:16:03.957Z,103076.66
2024-02-18T02:16:18.455Z,103077.56
2024-02-18T02:16:31.447Z,103078.44
2024-02-18T02:16:45.058Z,103083.75
2024-02-18T02:16:58.163Z,103073.19
2024-02-18T02:17:15.406Z,103074.94
2024-02-18T02:17:28.335Z,103081.16
2024-02-18T02:17:41.515Z,103076.75
2024-02-18T02:17:54.816Z,103073.22
2024-02-18T02:18:08.898Z,103072.38
2024-02-18T02:18:22.090Z,103075.91
2024-02-18T02:18:35.682Z,103075.03
2024-02-18T02:18:48.907Z,103074.19
2024-02-18T02:19:02.042Z,103075.06
2024-02-18T02:19:15.072Z,103075.97
2024-02-18T02:19:28.448Z,103079.56
2024-02-18T02:19:41.895Z,103083.97
2024-02-18T02:19:54.993Z,103083.09
2024-02-18T02:20:11.133Z,103087.53
2024-02-18T02:20:25.680Z,103082.25
2024-02-18T02:20:38.703Z,103079.59
2024-02-18T02:20:51.890Z,103079.59
2024-02-18T02:21:05.455Z,103084.06
2024-02-18T02:21:20.030Z,103082.28
2024-02-18T02:21:33.077Z,103079.69
2024-02-18T02:21:46.189Z,103085.88
2024-02-18T02:21:59.224Z,103084.09
2024-02-18T02:22:12.308Z,103079.69
2024-02-18T02:22:25.277Z,103084.13
2024-02-18T02:22:39.511Z,103085.03
2024-02-18T02:22:52.503Z,103080.63
2024-02-18T02:23:06.987Z,103086.81
2024-02-18T02:23:20.234Z,103081.53
2024-02-18T02:23:35.288Z,103079.78
2024-02-18T02:23:48.593Z,103082.47
2024-02-18T02:24:01.619Z,103083.34
2024-02-18T02:24:14.917Z,103080.72
2024-02-18T02:24:28.010Z,103077.22
2024-02-18T02:24:41.090Z,103083.41
2024-02-18T02:24:55.252Z,103081.66
2024-02-18T02:25:11.405Z,103085.22
2024-02-18T02:25:24.504Z,103087.88
2024-02-18T02:25:37.568Z,103082.56
2024-02-18T02:25:52.816Z,103077.31
2024-02-18T02:26:06.395Z,103081.72
2024-02-18T02:26:21.814Z,103084.38
2024-02-18T02:26:38.866Z,103084.44
2024-02-18T02:26:57.423Z,103075.59
2024-02-18T02:27:15.319Z,103079.16
2024-02-18T02:27:35.408Z,103076.53
2024-02-18T02:27:54.718Z,103080.97
2024-02-18T02:28:13.920Z,103080.09
2024-02-18T02:28:27.617Z,103086.28
2024-02-18T02:28:46.884Z,103076.59
2024-02-18T02:29:12.675Z,103087.19
2024-02-18T02:29:25.959Z,103080.13
2024-02-18T02:29:39.520Z,103086.34
2024-02-18T02:29:53.449Z,103084.59
2024-02-18T02:30:07.420Z,103076.63
2024-02-18T02:30:20.727Z,103076.63
2024-02-18T02:30:34.107Z,103085.50
2024-02-18T02:30:47.817Z,103080.22
2024-02-18T02:31:02.034Z,103078.47
2024-02-18T02:31:16.487Z,103076.72
2024-02-18T02:31:29.625Z,103082.00
2024-02-18T02:31:43.803Z,103083.78
2024-02-18T02:31:58.676Z,103080.28
2024-02-18T02:32:11.756Z,103081.16
2024-02-18T02:32:24.703Z,103083.81
2024-02-18T02:32:37.856Z,103074.16
2024-02-18T02:32:50.918Z,103078.59
2024-02-18T02:33:04.237Z,103081.22
2024-02-18T02:33:18.484Z,103075.03
2024-02-18T02:33:32.583Z,103074.16
2024-02-18T02:33:45.992Z,103075.09
2024-02-18T02:33:59.032Z,103080.38
2024-02-18T02:34:12.341Z,103083.03
2024-02-18T02:34:25.501Z,103081.28
2024-02-18T02:34:38.633Z,103078.66
2024-02-18T02:34:53.866Z,103080.41
2024-02-18T02:35:08.213Z,103080.41
2024-02-18T02:35:23.325Z,103078.66
2024-02-18T02:35:38.310Z,103076.03
2024-02-18T02:35:51.555Z,103078.69
2024-02-18T02:36:06.312Z,103076.03
2024-02-18T02:36:19.446Z,103076.03
2024-02-18T02:36:32.497Z,103079.56
2024-02-18T02:36:45.508Z,103077.84
2024-02-18T02:36:58.554Z,103073.44
2024-02-18T02:37:12.597Z,103078.72
2024-02-18T02:37:25.647Z,103071.69
2024-02-18T02:37:38.868Z,103069.97
2024-02-18T02:37:51.790Z,103078.78